Time;durP1;ratioP1;P1;durP2;ratioP2;P2;SDS_P1;SDS_P2;PMS_P1;PMS_P2;Temp;Humidity;BMP_temperature;BMP_pressure;BME280_temperature;BME280_humidity;BME280_pressure;Samples;Min_cycle;Max_cycle;Signal;HPM_P1;HPM_P2
2022/02/04 00:24:06;;;;;;;;;;;21.30;45.50;;;;;;5157793;27;20039;-40
2022/02/04 00:26:35;;;;;;;;;;;21.20;45.40;;;;;;5157528;27;19935;-41
2022/02/04 00:31:35;;;;;;;;;;;21.20;45.40;;;;;;5156729;27;19976;-42
2022/02/04 00:34:10;;;;;;;;;;;21.20;45.40;;;;;;5157794;27;20301;-40
2022/02/04 00:39:09;;;;;;;;;;;21.20;45.40;;;;;;5157347;27;19923;-40
2022/02/04 00:41:38;;;;;;;;;;;21.20;45.50;;;;;;5156363;27;20009;-42
2022/02/04 00:44:10;;;;;;;;;;;21.20;45.40;;;;;;5157546;27;19927;-42
2022/02/04 00:46:57;;;;;;;;;;;21.20;45.40;;;;;;5156755;27;20370;-41
2022/02/04 00:50:19;;;;;;;;;;;21.20;45.50;;;;;;5157951;27;19927;-40
2022/02/04 00:52:26;;;;;;;;;;;21.20;45.50;;;;;;5148610;27;19927;-41
2022/02/04 00:57:46;;;;;;;;;;;21.20;45.40;;;;;;5155821;27;19970;-42
2022/02/04 01:27:29;;;;;;;;;;;21.20;45.50;;;;;;5155741;27;19924;-41
2022/02/04 01:30:05;;;;;;;;;;;21.20;45.50;;;;;;5156634;27;19963;-43
2022/02/04 01:32:34;;;;;;;;;;;21.20;45.50;;;;;;5144127;27;20294;-41
2022/02/04 01:35:01;;;;;;;;;;;21.10;45.40;;;;;;5135486;27;19959;-44
2022/02/04 01:37:29;;;;;;;;;;;21.20;45.50;;;;;;5135761;27;19935;-39
2022/02/04 01:39:56;;;;;;;;;;;21.20;45.50;;;;;;5135705;27;20345;-43
2022/02/04 01:42:24;;;;;;;;;;;21.20;45.50;;;;;;5138491;27;19942;-42
2022/02/04 01:44:51;;;;;;;;;;;21.20;45.50;;;;;;5156036;27;19927;-41
2022/02/04 01:47:18;;;;;;;;;;;21.10;45.40;;;;;;5155336;27;19970;-42
2022/02/04 01:49:45;;;;;;;;;;;21.10;45.40;;;;;;5155991;27;19923;-42
2022/02/04 01:52:13;;;;;;;;;;;21.10;45.40;;;;;;5155990;27;19972;-41
2022/02/04 01:54:40;;;;;;;;;;;21.10;45.50;;;;;;5156074;27;19923;-44
2022/02/04 01:57:06;;;;;;;;;;;21.10;45.50;;;;;;5155725;27;19923;-43
2022/02/04 01:59:33;;;;;;;;;;;21.10;45.40;;;;;;5155676;27;19991;-41
2022/02/04 02:02:00;;;;;;;;;;;21.10;45.40;;;;;;5155002;27;19926;-42
2022/02/04 02:04:27;;;;;;;;;;;21.10;45.40;;;;;;5154974;27;20013;-43
2022/02/04 02:07:00;;;;;;;;;;;21.10;45.40;;;;;;5134953;27;20398;-41
2022/02/04 02:09:50;;;;;;;;;;;21.10;45.40;;;;;;5134986;27;19927;-41
2022/02/04 02:12:16;;;;;;;;;;;21.10;45.40;;;;;;5134428;27;19923;-42
2022/02/04 02:14:45;;;;;;;;;;;21.10;45.40;;;;;;5134547;27;19976;-42
2022/02/04 02:36:54;;;;;;;;;;;21.10;45.40;;;;;;5155334;27;19952;-50
2022/02/04 02:44:47;;;;;;;;;;;21.10;45.40;;;;;;5154445;27;20008;-42
2022/02/04 02:47:35;;;;;;;;;;;21.10;45.40;;;;;;5154339;27;19923;-41
2022/02/04 02:50:18;;;;;;;;;;;21.10;45.40;;;;;;5155134;27;20377;-40
2022/02/04 02:58:11;;;;;;;;;;;21.10;45.50;;;;;;5153907;27;19923;-40
2022/02/04 03:03:16;;;;;;;;;;;21.10;45.50;;;;;;5154271;27;19923;-43
2022/02/04 03:05:43;;;;;;;;;;;21.10;45.50;;;;;;5143394;27;19924;-41
2022/02/04 03:08:10;;;;;;;;;;;21.10;45.40;;;;;;5116152;28;19971;-42
2022/02/04 03:10:37;;;;;;;;;;;21.10;45.40;;;;;;5134478;28;19923;-40
2022/02/04 03:13:06;;;;;;;;;;;21.10;45.40;;;;;;5135169;27;19994;-41
2022/02/04 03:15:34;;;;;;;;;;;21.10;45.40;;;;;;5155149;27;19923;-43
2022/02/04 03:18:10;;;;;;;;;;;21.10;45.50;;;;;;5154503;27;19930;-42
2022/02/04 03:20:48;;;;;;;;;;;21.10;45.40;;;;;;5155149;27;20014;-40
2022/02/04 03:23:16;;;;;;;;;;;21.10;45.40;;;;;;5154564;27;19923;-41
2022/02/04 03:25:49;;;;;;;;;;;21.10;45.40;;;;;;5155059;27;19966;-40
2022/02/04 03:28:22;;;;;;;;;;;21.10;45.50;;;;;;5153631;27;19923;-41
2022/02/04 03:30:51;;;;;;;;;;;21.10;45.40;;;;;;5155044;27;19927;-41
2022/02/04 03:33:21;;;;;;;;;;;21.10;45.50;;;;;;5153950;27;19923;-39
2022/02/04 03:35:48;;;;;;;;;;;21.10;45.50;;;;;;5158918;27;19923;-40
2022/02/04 03:38:16;;;;;;;;;;;21.10;45.50;;;;;;5158828;27;20070;-44
2022/02/04 03:40:42;;;;;;;;;;;21.10;45.50;;;;;;5158487;27;20414;-41
2022/02/04 03:43:10;;;;;;;;;;;21.10;45.50;;;;;;5158466;27;20009;-40
2022/02/04 03:45:37;;;;;;;;;;;21.00;45.40;;;;;;5137685;27;19924;-43
2022/02/04 03:48:05;;;;;;;;;;;21.00;45.40;;;;;;5139643;27;19931;-43
2022/02/04 03:50:32;;;;;;;;;;;21.10;45.50;;;;;;5158603;27;19968;-41
2022/02/04 03:52:59;;;;;;;;;;;21.00;45.40;;;;;;5158120;27;19931;-42
2022/02/04 03:55:26;;;;;;;;;;;21.10;45.50;;;;;;5158519;27;19923;-41
2022/02/04 03:57:54;;;;;;;;;;;21.00;45.40;;;;;;5158131;27;19923;-42
2022/02/04 04:00:21;;;;;;;;;;;21.00;45.40;;;;;;5157360;27;19926;-42
2022/02/04 04:02:48;;;;;;;;;;;21.00;45.40;;;;;;5158391;27;20343;-40
2022/02/04 04:05:15;;;;;;;;;;;21.00;45.40;;;;;;5144877;27;19968;-40
2022/02/04 04:07:48;;;;;;;;;;;21.00;45.40;;;;;;5157966;27;19923;-43
2022/02/04 04:10:21;;;;;;;;;;;21.00;45.40;;;;;;5157944;27;19923;-40
2022/02/04 04:12:48;;;;;;;;;;;21.00;45.40;;;;;;5140634;27;19967;-42
2022/02/04 04:15:16;;;;;;;;;;;21.00;45.40;;;;;;5156757;27;19977;-42
2022/02/04 04:17:45;;;;;;;;;;;21.00;45.40;;;;;;5157899;27;19970;-45
2022/02/04 04:20:17;;;;;;;;;;;21.00;45.40;;;;;;5157514;27;19958;-41
2022/02/04 04:22:44;;;;;;;;;;;21.00;45.40;;;;;;5157578;27;19975;-41
2022/02/04 04:25:12;;;;;;;;;;;21.00;45.40;;;;;;5157851;27;19927;-41
2022/02/04 04:27:42;;;;;;;;;;;21.00;45.40;;;;;;5157572;27;20014;-43
2022/02/04 04:30:10;;;;;;;;;;;21.00;45.40;;;;;;5156444;27;19927;-42
2022/02/04 04:32:37;;;;;;;;;;;21.00;45.40;;;;;;5157724;27;19976;-41
2022/02/04 04:35:05;;;;;;;;;;;21.00;45.40;;;;;;5156857;27;19923;-44
2022/02/04 04:37:32;;;;;;;;;;;21.00;45.40;;;;;;5157302;27;19923;-40
2022/02/04 04:40:21;;;;;;;;;;;21.00;45.40;;;;;;5157344;27;20018;-40
2022/02/04 04:42:59;;;;;;;;;;;21.00;45.40;;;;;;5157293;27;19954;-40
2022/02/04 05:29:14;;;;;;;;;;;20.90;45.40;;;;;;5136444;27;19934;-39
2022/02/04 05:31:42;;;;;;;;;;;20.90;45.50;;;;;;5155026;27;19923;-40
2022/02/04 05:34:10;;;;;;;;;;;20.90;45.40;;;;;;5156496;27;19923;-40
2022/02/04 05:36:42;;;;;;;;;;;20.90;45.40;;;;;;5156071;27;19930;-41
2022/02/04 05:39:11;;;;;;;;;;;20.90;45.40;;;;;;5156207;27;20366;-42
2022/02/04 05:41:39;;;;;;;;;;;20.90;45.40;;;;;;5156459;27;20346;-40
2022/02/04 05:44:10;;;;;;;;;;;20.90;45.40;;;;;;5156385;27;19923;-40
2022/02/04 05:46:58;;;;;;;;;;;20.90;45.40;;;;;;5154950;27;19923;-45
2022/02/04 05:49:28;;;;;;;;;;;20.90;45.40;;;;;;5155280;27;21514;-42
2022/02/04 05:52:22;;;;;;;;;;;20.90;45.50;;;;;;5138092;27;19935;-41
2022/02/04 05:55:13;;;;;;;;;;;20.90;45.40;;;;;;5155432;27;19923;-44
2022/02/04 05:57:55;;;;;;;;;;;20.90;45.40;;;;;;5154591;27;19923;-40
2022/02/04 06:00:35;;;;;;;;;;;20.90;46.10;;;;;;5154731;27;19956;-41
2022/02/04 06:03:32;;;;;;;;;;;20.90;45.50;;;;;;5155736;27;20022;-44
2022/02/04 06:22:49;;;;;;;;;;;20.90;45.50;;;;;;5051365;28;19932;-39
2022/02/04 06:25:21;;;;;;;;;;;20.80;45.40;;;;;;5051099;28;20455;-42
2022/02/04 06:27:47;;;;;;;;;;;20.80;45.40;;;;;;5051639;28;19979;-41
2022/02/04 06:30:15;;;;;;;;;;;20.80;45.40;;;;;;5050675;28;20032;-43
2022/02/04 06:32:42;;;;;;;;;;;20.90;45.50;;;;;;5051321;28;20399;-42
2022/02/04 06:35:10;;;;;;;;;;;20.80;45.40;;;;;;5050581;28;20485;-41
2022/02/04 06:37:37;;;;;;;;;;;20.80;45.40;;;;;;5035510;28;19925;-43
2022/02/04 06:40:05;;;;;;;;;;;20.80;45.40;;;;;;5098397;28;19927;-41
2022/02/04 06:42:32;;;;;;;;;;;20.80;45.40;;;;;;5127258;28;19935;-42
2022/02/04 06:44:59;;;;;;;;;;;20.80;45.40;;;;;;5113884;28;20341;-42
2022/02/04 06:47:28;;;;;;;;;;;20.80;45.40;;;;;;5132968;28;19928;-44
2022/02/04 06:49:55;;;;;;;;;;;20.80;45.40;;;;;;5132666;27;19966;-44
2022/02/04 06:52:22;;;;;;;;;;;20.80;45.40;;;;;;5113615;28;19974;-44
2022/02/04 06:54:49;;;;;;;;;;;20.80;45.40;;;;;;5113940;28;20333;-46
2022/02/04 06:57:16;;;;;;;;;;;20.80;45.30;;;;;;5112957;28;19924;-46
2022/02/04 06:59:45;;;;;;;;;;;20.80;45.40;;;;;;5114079;28;19971;-43
2022/02/04 07:02:13;;;;;;;;;;;20.80;45.30;;;;;;5128969;28;19931;-46
2022/02/04 07:04:40;;;;;;;;;;;20.90;45.40;;;;;;5131639;27;19927;-41
2022/02/04 07:07:08;;;;;;;;;;;20.90;45.40;;;;;;5113279;28;19928;-43
2022/02/04 07:12:21;;;;;;;;;;;20.90;45.40;;;;;;5117780;28;19969;-42
2022/02/04 07:19:46;;;;;;;;;;;20.90;45.40;;;;;;5156094;27;20404;-43
2022/02/04 07:22:20;;;;;;;;;;;20.90;45.30;;;;;;5140002;27;19923;-44
2022/02/04 07:24:49;;;;;;;;;;;20.90;45.30;;;;;;5119974;27;20374;-43
2022/02/04 07:27:18;;;;;;;;;;;20.90;45.30;;;;;;5138560;27;19927;-41
2022/02/04 07:29:48;;;;;;;;;;;20.90;45.30;;;;;;5103643;27;19923;-44
2022/02/04 07:32:21;;;;;;;;;;;20.90;45.30;;;;;;5151288;27;19962;-44
2022/02/04 07:42:57;;;;;;;;;;;20.90;45.20;;;;;;5158520;27;20401;-41
2022/02/04 07:45:24;;;;;;;;;;;20.90;45.20;;;;;;5158433;27;19927;-42
2022/02/04 07:47:56;;;;;;;;;;;20.90;45.20;;;;;;5157143;27;19975;-42
2022/02/04 07:50:23;;;;;;;;;;;20.90;45.20;;;;;;5140273;27;19927;-40
2022/02/04 07:52:51;;;;;;;;;;;20.90;45.20;;;;;;5157257;27;19927;-40
2022/02/04 07:55:18;;;;;;;;;;;20.90;45.20;;;;;;5158575;27;20343;-43
2022/02/04 07:57:45;;;;;;;;;;;20.90;45.10;;;;;;5158135;27;19923;-40
2022/02/04 08:00:16;;;;;;;;;;;20.90;45.10;;;;;;5158058;27;19933;-43
2022/02/04 08:02:45;;;;;;;;;;;20.90;45.10;;;;;;5156989;27;20279;-46
2022/02/04 08:05:16;;;;;;;;;;;21.00;45.10;;;;;;5151116;27;19928;-42
2022/02/04 08:11:08;;;;;;;;;;;21.00;45.10;;;;;;5094475;28;19938;-43
2022/02/04 08:36:06;;;;;;;;;;;21.20;44.80;;;;;;4994461;28;19968;-42
2022/02/04 08:38:40;;;;;;;;;;;21.20;44.70;;;;;;4993748;28;20024;-42
2022/02/04 08:47:01;;;;;;;;;;;21.20;44.60;;;;;;5034625;28;19929;-41
2022/02/04 08:49:44;;;;;;;;;;;21.20;44.60;;;;;;5053638;28;19924;-42
2022/02/04 08:54:58;;;;;;;;;;;21.30;44.50;;;;;;5052998;28;19983;-39
2022/02/04 09:00:10;;;;;;;;;;;21.30;44.40;;;;;;5067729;28;20352;-40
2022/02/04 09:02:41;;;;;;;;;;;21.30;44.40;;;;;;5137359;27;20351;-40
2022/02/04 09:05:15;;;;;;;;;;;21.30;44.30;;;;;;5150896;27;19923;-40
2022/02/04 09:07:53;;;;;;;;;;;21.30;44.30;;;;;;5129972;27;20064;-42
2022/02/04 09:10:23;;;;;;;;;;;21.40;44.30;;;;;;5157121;27;19935;-41
2022/02/04 09:22:59;;;;;;;;;;;21.50;44.10;;;;;;5155429;27;19975;-39
2022/02/04 09:25:27;;;;;;;;;;;21.50;44.10;;;;;;5156439;27;19924;-41
2022/02/04 09:27:55;;;;;;;;;;;21.50;44.10;;;;;;5156694;27;19929;-41
2022/02/04 09:30:23;;;;;;;;;;;21.50;44.00;;;;;;5156656;27;20319;-43
2022/02/04 09:32:50;;;;;;;;;;;21.50;43.90;;;;;;5155457;27;19966;-42
2022/02/04 09:35:18;;;;;;;;;;;21.60;43.90;;;;;;5137814;27;19923;-43
2022/02/04 09:37:47;;;;;;;;;;;21.60;43.90;;;;;;5155791;27;20327;-44
2022/02/04 09:40:15;;;;;;;;;;;21.60;43.80;;;;;;5156485;27;19989;-42
2022/02/04 09:42:43;;;;;;;;;;;21.60;43.80;;;;;;5156321;27;19923;-44
2022/02/04 09:45:12;;;;;;;;;;;21.70;43.80;;;;;;5156087;27;19968;-41
2022/02/04 09:47:41;;;;;;;;;;;21.70;43.70;;;;;;5150851;27;19983;-40
2022/02/04 09:50:11;;;;;;;;;;;21.70;43.70;;;;;;5135193;27;19924;-41
2022/02/04 10:15:27;;;;;;;;;;;22.00;43.30;;;;;;5031677;28;19971;-43
2022/02/04 10:18:07;;;;;;;;;;;22.00;43.20;;;;;;5030743;28;20316;-43
2022/02/04 10:20:35;;;;;;;;;;;22.00;43.20;;;;;;5031909;28;19933;-45
2022/02/04 10:23:02;;;;;;;;;;;22.00;43.20;;;;;;5030562;28;20425;-40
2022/02/04 10:25:33;;;;;;;;;;;22.00;43.10;;;;;;5031762;28;19925;-43
2022/02/04 10:28:22;;;;;;;;;;;22.00;43.10;;;;;;5031637;28;19925;-46
2022/02/04 10:31:06;;;;;;;;;;;22.10;43.10;;;;;;5031638;28;20386;-41
2022/02/04 10:33:33;;;;;;;;;;;22.10;43.10;;;;;;5030632;28;20109;-40
2022/02/04 10:36:05;;;;;;;;;;;22.10;43.00;;;;;;5031472;28;19925;-49
2022/02/04 10:38:40;;;;;;;;;;;22.10;43.00;;;;;;5088237;28;19977;-46
2022/02/04 10:41:23;;;;;;;;;;;22.10;43.00;;;;;;5114357;28;20343;-45
2022/02/04 10:44:21;;;;;;;;;;;22.10;43.00;;;;;;5114358;28;19931;-44
2022/02/04 10:46:58;;;;;;;;;;;22.10;42.90;;;;;;5113966;28;20394;-42
2022/02/04 10:52:34;;;;;;;;;;;22.10;42.90;;;;;;5113777;28;20018;-41
2022/02/04 11:02:43;;;;;;;;;;;22.20;42.90;;;;;;5093495;28;20371;-40
2022/02/04 11:05:26;;;;;;;;;;;22.20;42.90;;;;;;5105341;28;19924;-44
2022/02/04 11:36:27;;;;;;;;;;;22.30;42.90;;;;;;5070569;28;19924;-40
2022/02/04 11:48:40;;;;;;;;;;;22.30;43.50;;;;;;5070725;28;19924;-43
2022/02/04 11:51:33;;;;;;;;;;;22.30;42.90;;;;;;5070977;28;19970;-42
2022/02/04 11:56:58;;;;;;;;;;;22.30;42.90;;;;;;5093259;28;19924;-45
2022/02/04 11:59:38;;;;;;;;;;;22.30;42.90;;;;;;5094475;28;20334;-40
2022/02/04 12:05:07;;;;;;;;;;;22.30;43.00;;;;;;5137459;27;19924;-41
2022/02/04 12:07:35;;;;;;;;;;;22.30;43.00;;;;;;5137566;27;19933;-48
2022/02/04 12:10:03;;;;;;;;;;;22.30;43.00;;;;;;5136990;27;19953;-42
2022/02/04 12:12:50;;;;;;;;;;;22.30;43.00;;;;;;5137746;27;19949;-44
2022/02/04 12:15:36;;;;;;;;;;;22.30;43.30;;;;;;5120002;27;19930;-42
2022/02/04 12:18:05;;;;;;;;;;;22.30;43.60;;;;;;5136982;27;19924;-41
2022/02/04 12:20:47;;;;;;;;;;;22.40;43.00;;;;;;5152077;27;19923;-42
2022/02/04 12:23:26;;;;;;;;;;;22.40;43.00;;;;;;5157916;27;20305;-41
2022/02/04 12:26:16;;;;;;;;;;;22.40;43.00;;;;;;5156992;27;19929;-43
2022/02/04 12:29:08;;;;;;;;;;;22.40;43.00;;;;;;5157974;27;19930;-45
2022/02/04 12:31:36;;;;;;;;;;;22.40;43.00;;;;;;5157574;27;19953;-40
2022/02/04 12:34:12;;;;;;;;;;;22.40;43.00;;;;;;5156658;27;19991;-43
2022/02/04 12:36:39;;;;;;;;;;;22.40;43.00;;;;;;5157504;27;19930;-41
2022/02/04 12:39:06;;;;;;;;;;;22.40;42.90;;;;;;5156974;27;19966;-44
2022/02/04 12:41:37;;;;;;;;;;;22.40;43.00;;;;;;5157377;27;19959;-40
2022/02/04 12:44:05;;;;;;;;;;;22.40;43.00;;;;;;5157650;27;19927;-39
2022/02/04 12:46:33;;;;;;;;;;;22.40;43.10;;;;;;5157595;27;19962;-42
2022/02/04 12:49:05;;;;;;;;;;;22.40;43.00;;;;;;5157153;27;19973;-41
2022/02/04 12:52:05;;;;;;;;;;;22.40;43.00;;;;;;5136113;27;20437;-43
2022/02/04 12:54:39;;;;;;;;;;;22.40;43.10;;;;;;5037810;28;20123;-41
2022/02/04 13:07:47;;;;;;;;;;;22.40;43.00;;;;;;5053366;28;19925;-42
2022/02/04 13:10:18;;;;;;;;;;;22.40;43.00;;;;;;5052249;28;19929;-43
2022/02/04 13:12:49;;;;;;;;;;;22.50;43.10;;;;;;5053245;28;19978;-42
2022/02/04 13:15:16;;;;;;;;;;;22.50;43.10;;;;;;5052701;28;20399;-42
2022/02/04 13:17:44;;;;;;;;;;;22.40;43.00;;;;;;5052785;28;20463;-42
2022/02/04 13:20:11;;;;;;;;;;;22.50;43.20;;;;;;5051912;28;19975;-41
2022/02/04 13:22:39;;;;;;;;;;;22.50;43.10;;;;;;5052391;28;19990;-42
2022/02/04 13:25:07;;;;;;;;;;;22.50;43.10;;;;;;5051881;28;20004;-42
2022/02/04 13:27:35;;;;;;;;;;;22.50;43.20;;;;;;5052476;28;19972;-42
2022/02/04 13:30:22;;;;;;;;;;;22.50;43.20;;;;;;5052493;28;20440;-41
2022/02/04 13:32:49;;;;;;;;;;;22.50;43.20;;;;;;5135437;27;19978;-42
2022/02/04 13:35:27;;;;;;;;;;;22.50;43.20;;;;;;5141440;27;19984;-43
2022/02/04 13:37:58;;;;;;;;;;;22.50;43.20;;;;;;5156205;27;19972;-45
2022/02/04 13:40:42;;;;;;;;;;;22.50;43.20;;;;;;5147822;27;19984;-41
2022/02/04 13:43:31;;;;;;;;;;;22.50;43.20;;;;;;5135483;27;19923;-42
2022/02/04 13:46:08;;;;;;;;;;;22.50;43.20;;;;;;5117220;27;20018;-42
2022/02/04 13:48:49;;;;;;;;;;;22.50;43.20;;;;;;5135393;27;19982;-42
2022/02/04 13:51:38;;;;;;;;;;;22.50;43.20;;;;;;5148580;27;19923;-40
2022/02/04 13:54:06;;;;;;;;;;;22.50;43.20;;;;;;5156144;27;20046;-42
2022/02/04 13:56:45;;;;;;;;;;;22.50;43.20;;;;;;5155401;27;20320;-45
2022/02/04 13:59:25;;;;;;;;;;;22.50;43.20;;;;;;5139801;27;19928;-42
2022/02/04 14:02:17;;;;;;;;;;;22.50;43.30;;;;;;5156129;27;19925;-42
2022/02/04 14:04:55;;;;;;;;;;;22.50;43.20;;;;;;5152810;27;19966;-41
2022/02/04 14:07:32;;;;;;;;;;;22.50;43.30;;;;;;5134974;27;20379;-42
2022/02/04 14:10:07;;;;;;;;;;;22.50;43.30;;;;;;5134294;27;20014;-40
2022/02/04 14:12:35;;;;;;;;;;;22.50;43.30;;;;;;5134905;27;19935;-41
2022/02/04 14:15:02;;;;;;;;;;;22.50;43.30;;;;;;5135088;27;19992;-42
2022/02/04 14:17:31;;;;;;;;;;;22.50;43.40;;;;;;5135020;27;19924;-43
2022/02/04 14:19:58;;;;;;;;;;;22.50;43.40;;;;;;5133721;27;19923;-41
2022/02/04 14:22:25;;;;;;;;;;;22.50;43.40;;;;;;5134057;27;20375;-39
2022/02/04 14:24:52;;;;;;;;;;;22.50;43.40;;;;;;5134865;27;19923;-41
2022/02/04 14:27:19;;;;;;;;;;;22.50;43.40;;;;;;5154441;27;19985;-40
2022/02/04 14:29:57;;;;;;;;;;;22.50;43.40;;;;;;5155346;27;20010;-40
2022/02/04 14:32:30;;;;;;;;;;;22.50;43.40;;;;;;5155605;27;19927;-48
2022/02/04 15:03:45;;;;;;;;;;;22.50;43.60;;;;;;5071171;28;19929;-43
2022/02/04 15:06:17;;;;;;;;;;;22.50;43.60;;;;;;5079473;28;19978;-44
2022/02/04 15:08:58;;;;;;;;;;;22.50;43.60;;;;;;5072195;28;19924;-43
2022/02/04 15:11:31;;;;;;;;;;;22.50;43.60;;;;;;5070411;28;19925;-41
2022/02/04 15:14:00;;;;;;;;;;;22.50;43.70;;;;;;5071142;28;19954;-43
2022/02/04 15:16:28;;;;;;;;;;;22.50;43.70;;;;;;5071017;28;19982;-41
2022/02/04 15:18:59;;;;;;;;;;;22.50;43.70;;;;;;5071079;28;19979;-43
2022/02/04 15:21:26;;;;;;;;;;;22.50;43.80;;;;;;5070073;28;19966;-41
2022/02/04 15:23:54;;;;;;;;;;;22.50;43.80;;;;;;5079195;28;19931;-41
2022/02/04 15:26:23;;;;;;;;;;;22.50;43.80;;;;;;5139323;27;20003;-41
2022/02/04 15:29:01;;;;;;;;;;;22.50;43.80;;;;;;5155015;27;20370;-42
2022/02/04 15:32:11;;;;;;;;;;;22.50;43.80;;;;;;5158540;27;19923;-43
2022/02/04 15:34:19;;;;;;;;;;;22.40;43.70;;;;;;5133482;27;19927;-44
2022/02/04 15:36:48;;;;;;;;;;;22.50;43.80;;;;;;5157473;27;19931;-39
2022/02/04 15:39:22;;;;;;;;;;;22.50;43.90;;;;;;5158601;27;19923;-42
2022/02/04 15:41:53;;;;;;;;;;;22.40;43.80;;;;;;5158464;27;20260;-41
2022/02/04 15:44:36;;;;;;;;;;;22.40;43.90;;;;;;5158561;27;19930;-41
2022/02/04 15:54:49;;;;;;;;;;;22.40;44.00;;;;;;5140206;27;19983;-39
2022/02/04 16:03:19;;;;;;;;;;;22.40;44.10;;;;;;5054218;28;19928;-41
2022/02/04 16:05:46;;;;;;;;;;;22.40;44.20;;;;;;5054071;28;19924;-41
2022/02/04 16:08:18;;;;;;;;;;;22.40;44.20;;;;;;5053149;28;20007;-43
2022/02/04 16:10:55;;;;;;;;;;;22.30;44.30;;;;;;5054063;28;19924;-41
2022/02/04 16:13:49;;;;;;;;;;;22.30;44.40;;;;;;5035467;28;19965;-41
2022/02/04 16:19:08;;;;;;;;;;;22.30;44.60;;;;;;5033958;28;19929;-41
2022/02/04 16:21:49;;;;;;;;;;;22.30;44.80;;;;;;5034923;28;19925;-39
2022/02/04 16:29:51;;;;;;;;;;;22.30;44.90;;;;;;5053370;28;19972;-42
2022/02/04 16:32:21;;;;;;;;;;;22.20;44.90;;;;;;5053578;28;20416;-41
2022/02/04 16:34:56;;;;;;;;;;;22.20;45.00;;;;;;5053418;28;20012;-40
2022/02/04 16:37:33;;;;;;;;;;;22.20;45.00;;;;;;5055191;27;20027;-47
2022/02/04 16:40:04;;;;;;;;;;;22.20;45.10;;;;;;5136633;27;19967;-43
2022/02/04 16:42:31;;;;;;;;;;;22.20;45.10;;;;;;5143991;27;19923;-41
2022/02/04 16:44:59;;;;;;;;;;;22.20;45.10;;;;;;5157301;27;19923;-40
2022/02/04 16:47:26;;;;;;;;;;;22.20;45.10;;;;;;5157453;27;19929;-42
2022/02/04 16:49:53;;;;;;;;;;;22.20;45.20;;;;;;5157176;27;20005;-43
2022/02/04 16:52:20;;;;;;;;;;;22.20;45.30;;;;;;5149735;27;19923;-44
2022/02/04 16:54:47;;;;;;;;;;;22.20;45.30;;;;;;5137215;27;20013;-40
2022/02/04 16:57:15;;;;;;;;;;;22.20;45.30;;;;;;5141040;27;20013;-41
2022/02/04 16:59:42;;;;;;;;;;;22.20;45.30;;;;;;5157080;27;19952;-41
2022/02/04 17:02:10;;;;;;;;;;;22.10;45.30;;;;;;5138763;27;19923;-42
2022/02/04 17:04:37;;;;;;;;;;;22.10;45.30;;;;;;5155028;27;20431;-42
2022/02/04 17:07:09;;;;;;;;;;;22.10;45.30;;;;;;5138255;27;20987;-41
2022/02/04 17:09:41;;;;;;;;;;;22.10;45.30;;;;;;5156903;27;20374;-43
2022/02/04 17:12:11;;;;;;;;;;;22.10;45.40;;;;;;5153595;27;20381;-40
2022/02/04 17:14:38;;;;;;;;;;;22.10;45.40;;;;;;5135991;27;20378;-41
2022/02/04 17:17:06;;;;;;;;;;;22.10;45.40;;;;;;5136259;27;19927;-40
2022/02/04 17:19:43;;;;;;;;;;;22.10;45.40;;;;;;5135753;27;19923;-42
2022/02/04 17:22:12;;;;;;;;;;;22.10;46.00;;;;;;5137558;27;20298;-42
2022/02/04 17:24:40;;;;;;;;;;;22.10;45.50;;;;;;5156557;27;19935;-42
2022/02/04 17:27:07;;;;;;;;;;;22.10;45.50;;;;;;5137570;27;19923;-43
2022/02/04 17:29:34;;;;;;;;;;;22.10;45.60;;;;;;5156788;27;19976;-41
2022/02/04 17:32:01;;;;;;;;;;;22.10;45.60;;;;;;5156741;27;19968;-45
2022/02/04 17:34:28;;;;;;;;;;;22.00;45.60;;;;;;5156658;27;20271;-42
2022/02/04 17:36:55;;;;;;;;;;;22.00;45.60;;;;;;5156575;27;19923;-42
2022/02/04 17:39:24;;;;;;;;;;;22.10;47.90;;;;;;5155551;27;19966;-43
2022/02/04 17:41:57;;;;;;;;;;;22.10;46.60;;;;;;5156209;27;19966;-44
2022/02/04 17:44:24;;;;;;;;;;;22.10;47.40;;;;;;5155729;27;19976;-42
2022/02/04 17:46:52;;;;;;;;;;;22.10;47.00;;;;;;5156454;27;19930;-42
2022/02/04 17:49:37;;;;;;;;;;;22.10;46.80;;;;;;5156066;27;19988;-44
2022/02/04 17:52:18;;;;;;;;;;;22.10;46.80;;;;;;5156104;27;19929;-45
2022/02/04 17:54:55;;;;;;;;;;;22.10;47.40;;;;;;5135617;27;20085;-49
2022/02/04 18:03:05;;;;;;;;;;;22.10;47.40;;;;;;5135166;27;20429;-43
2022/02/04 18:05:44;;;;;;;;;;;22.10;47.30;;;;;;5145237;27;19958;-45
2022/02/04 18:08:11;;;;;;;;;;;22.10;47.10;;;;;;5155486;27;20337;-43
2022/02/04 18:10:39;;;;;;;;;;;22.20;47.20;;;;;;5155938;27;19958;-43
2022/02/04 18:13:08;;;;;;;;;;;22.20;47.20;;;;;;5150146;27;19980;-45
2022/02/04 18:15:40;;;;;;;;;;;22.20;47.20;;;;;;5134840;27;20479;-43
2022/02/04 18:18:08;;;;;;;;;;;22.20;47.20;;;;;;5134812;27;20018;-48
2022/02/04 18:20:35;;;;;;;;;;;22.20;47.20;;;;;;5134782;27;19924;-45
2022/02/04 18:23:02;;;;;;;;;;;22.20;47.10;;;;;;5138149;27;19975;-43
2022/02/04 18:25:31;;;;;;;;;;;22.20;47.10;;;;;;5155279;27;20319;-45
2022/02/04 18:27:59;;;;;;;;;;;22.20;47.10;;;;;;5152095;27;19926;-44
2022/02/04 18:30:29;;;;;;;;;;;22.20;47.10;;;;;;5099761;27;19935;-48
2022/02/04 18:32:57;;;;;;;;;;;22.20;47.50;;;;;;5135779;27;19927;-52
2022/02/04 18:35:24;;;;;;;;;;;22.20;49.10;;;;;;5134897;27;19923;-49
2022/02/04 18:38:03;;;;;;;;;;;22.20;50.90;;;;;;5135462;27;19975;-50
2022/02/04 18:45:54;;;;;;;;;;;22.20;53.90;;;;;;5155500;27;20297;-49
2022/02/04 18:48:24;;;;;;;;;;;22.20;54.30;;;;;;5156101;27;19929;-46
2022/02/04 18:53:38;;;;;;;;;;;22.20;54.40;;;;;;5153851;27;19970;-49
2022/02/04 18:58:39;;;;;;;;;;;22.20;54.30;;;;;;5154402;27;19952;-46
2022/02/04 19:01:06;;;;;;;;;;;22.20;54.30;;;;;;5155073;27;20404;-48
2022/02/04 19:03:39;;;;;;;;;;;22.20;54.30;;;;;;5155344;27;20512;-49
2022/02/04 19:06:16;;;;;;;;;;;22.20;54.20;;;;;;5143346;27;20390;-46
2022/02/04 19:08:52;;;;;;;;;;;22.20;54.10;;;;;;5144049;27;19923;-47
2022/02/04 19:11:25;;;;;;;;;;;22.20;54.20;;;;;;5159541;27;20335;-47
2022/02/04 19:14:39;;;;;;;;;;;22.20;54.10;;;;;;5158524;27;20006;-48
2022/02/04 19:16:54;;;;;;;;;;;22.20;54.10;;;;;;5156187;27;20382;-46
2022/02/04 19:19:27;;;;;;;;;;;22.20;54.00;;;;;;5158652;27;20366;-45
2022/02/04 19:22:18;;;;;;;;;;;22.20;54.00;;;;;;5140830;27;20343;-47
2022/02/04 19:24:46;;;;;;;;;;;22.10;53.80;;;;;;5158222;27;19923;-47
2022/02/04 19:27:15;;;;;;;;;;;22.20;53.80;;;;;;5158844;27;19940;-46
2022/02/04 19:29:47;;;;;;;;;;;22.10;53.70;;;;;;5158560;27;20001;-47
2022/02/04 19:32:15;;;;;;;;;;;22.10;53.70;;;;;;5141491;27;20382;-48
2022/02/04 19:34:44;;;;;;;;;;;22.10;53.50;;;;;;5159161;27;19923;-47
2022/02/04 19:37:12;;;;;;;;;;;22.10;53.50;;;;;;5158625;27;19967;-46
2022/02/04 19:39:42;;;;;;;;;;;22.10;53.40;;;;;;5139723;27;19981;-49
2022/02/04 19:42:29;;;;;;;;;;;22.10;53.30;;;;;;5158589;27;19925;-45
2022/02/04 19:45:01;;;;;;;;;;;22.10;53.20;;;;;;5157936;27;19969;-50
2022/02/04 19:47:33;;;;;;;;;;;22.10;53.10;;;;;;5158491;27;19996;-48
2022/02/04 20:25:04;;;;;;;;;;;22.00;52.00;;;;;;5157077;27;20339;-45
2022/02/04 20:27:33;;;;;;;;;;;22.00;52.00;;;;;;5157758;27;19923;-45
2022/02/04 20:30:01;;;;;;;;;;;22.00;51.90;;;;;;5156940;27;19923;-47
2022/02/04 20:32:28;;;;;;;;;;;22.00;51.90;;;;;;5157973;27;19930;-49
2022/02/04 20:34:55;;;;;;;;;;;22.00;51.80;;;;;;5157938;27;20290;-46
2022/02/04 20:37:22;;;;;;;;;;;22.00;51.80;;;;;;5157459;27;20417;-44
2022/02/04 20:39:56;;;;;;;;;;;22.00;51.70;;;;;;5156547;27;20022;-46
2022/02/04 20:42:23;;;;;;;;;;;22.00;51.60;;;;;;5157835;27;19962;-44
2022/02/04 20:44:50;;;;;;;;;;;22.00;51.90;;;;;;5156945;27;19970;-44
2022/02/04 20:47:22;;;;;;;;;;;22.00;51.50;;;;;;5157939;27;19955;-48
2022/02/04 20:49:52;;;;;;;;;;;22.00;51.50;;;;;;5157310;27;20484;-46
2022/02/04 20:52:20;;;;;;;;;;;22.00;51.50;;;;;;5139045;27;19923;-46
2022/02/04 20:54:47;;;;;;;;;;;22.00;51.40;;;;;;5156201;27;20349;-45
2022/02/04 20:57:14;;;;;;;;;;;21.90;51.20;;;;;;5157382;27;20331;-46
2022/02/04 20:59:44;;;;;;;;;;;21.90;51.20;;;;;;5155288;27;19977;-45
2022/02/04 21:02:12;;;;;;;;;;;21.90;51.20;;;;;;5136692;27;19971;-49
2022/02/04 21:04:42;;;;;;;;;;;21.90;51.10;;;;;;5139129;27;19923;-44
2022/02/04 21:07:18;;;;;;;;;;;21.90;51.10;;;;;;5157262;27;19924;-44
2022/02/04 21:17:36;;;;;;;;;;;21.90;50.90;;;;;;5157823;27;19923;-44
2022/02/04 21:20:04;;;;;;;;;;;21.90;50.90;;;;;;5156860;27;20034;-47
2022/02/04 21:22:32;;;;;;;;;;;21.90;50.80;;;;;;5156417;27;19923;-45
2022/02/04 21:25:00;;;;;;;;;;;21.90;50.80;;;;;;5155605;27;19929;-46
2022/02/04 21:27:29;;;;;;;;;;;21.90;50.70;;;;;;5156546;27;19931;-47
2022/02/04 21:29:56;;;;;;;;;;;21.80;50.60;;;;;;5155692;27;19923;-46
2022/02/04 21:32:24;;;;;;;;;;;21.90;50.70;;;;;;5156461;27;19923;-48
2022/02/04 21:37:40;;;;;;;;;;;21.90;50.60;;;;;;5156640;27;19972;-46